GMMB

Ben Slimane Airport

Ben Slimane, Morocco
METAR GMMB 170000Z AUTO 24002KT //// ////// 09/08 Q1023 NOSIG
Observed Flight Rules
Dec-17 @ 00:00 UTC (27 minutes ago)
Wind
240° at 2 knots
Temperatures Readings
Current 9°C / 48°F
Dewpoint 8°C / 46°F
Humidity 94%
Altimeter 30.21" Hg
Pressure 1023 hPa
Elevation 191
METAR GMMB 170000Z AUTO 24002KT //// ////// 09/08 Q1023 NOSIG
Observed Flight Rules
Dec-17 @ 00:00 UTC
(27 minutes ago)
Wind
240° at 2 knots
Temperature Dewpoint
9°C / 48°F 8°C / 46°F
Humidity Altimeter Pressure
94% 30.21" Hg 1023 hPa